sensor_id;sensor_type;location;lat;lon;timestamp;P1;durP1;ratioP1;P2;durP2;ratioP2
22026;SDS011;11177;50.966;10.070;2023-05-10T00:02:03;3.60;;;2.83;;
22026;SDS011;11177;50.966;10.070;2023-05-10T00:04:30;3.13;;;2.70;;
22026;SDS011;11177;50.966;10.070;2023-05-10T00:06:57;3.80;;;2.60;;
22026;SDS011;11177;50.966;10.070;2023-05-10T00:09:23;4.55;;;2.70;;
22026;SDS011;11177;50.966;10.070;2023-05-10T00:11:50;4.15;;;2.92;;
22026;SDS011;11177;50.966;10.070;2023-05-10T00:14:17;3.20;;;2.90;;
22026;SDS011;11177;50.966;10.070;2023-05-10T00:16:44;3.22;;;2.88;;
22026;SDS011;11177;50.966;10.070;2023-05-10T00:19:11;4.82;;;2.65;;
22026;SDS011;11177;50.966;10.070;2023-05-10T00:21:38;9.95;;;3.03;;
22026;SDS011;11177;50.966;10.070;2023-05-10T00:24:05;5.90;;;3.05;;
22026;SDS011;11177;50.966;10.070;2023-05-10T00:26:32;4.65;;;2.80;;
22026;SDS011;11177;50.966;10.070;2023-05-10T00:28:59;6.90;;;3.10;;
22026;SDS011;11177;50.966;10.070;2023-05-10T00:31:26;4.55;;;2.90;;
22026;SDS011;11177;50.966;10.070;2023-05-10T00:33:53;4.18;;;3.13;;
22026;SDS011;11177;50.966;10.070;2023-05-10T00:36:19;6.47;;;2.85;;
22026;SDS011;11177;50.966;10.070;2023-05-10T00:38:47;4.30;;;3.10;;
22026;SDS011;11177;50.966;10.070;2023-05-10T00:41:13;4.18;;;3.05;;
22026;SDS011;11177;50.966;10.070;2023-05-10T00:43:40;6.60;;;3.20;;
22026;SDS011;11177;50.966;10.070;2023-05-10T00:46:07;6.68;;;3.30;;
22026;SDS011;11177;50.966;10.070;2023-05-10T00:48:34;3.55;;;3.17;;
22026;SDS011;11177;50.966;10.070;2023-05-10T00:51:01;3.25;;;2.95;;
22026;SDS011;11177;50.966;10.070;2023-05-10T00:53:28;4.35;;;3.40;;
22026;SDS011;11177;50.966;10.070;2023-05-10T00:55:55;6.07;;;3.25;;
22026;SDS011;11177;50.966;10.070;2023-05-10T00:58:22;3.72;;;3.20;;
22026;SDS011;11177;50.966;10.070;2023-05-10T01:00:50;3.85;;;3.40;;
22026;SDS011;11177;50.966;10.070;2023-05-10T01:03:17;4.80;;;3.20;;
22026;SDS011;11177;50.966;10.070;2023-05-10T01:05:44;4.45;;;3.40;;
22026;SDS011;11177;50.966;10.070;2023-05-10T01:08:11;6.90;;;3.72;;
22026;SDS011;11177;50.966;10.070;2023-05-10T01:10:38;3.67;;;3.33;;
22026;SDS011;11177;50.966;10.070;2023-05-10T01:13:05;6.22;;;3.30;;
22026;SDS011;11177;50.966;10.070;2023-05-10T01:15:31;5.22;;;3.60;;
22026;SDS011;11177;50.966;10.070;2023-05-10T01:17:58;5.38;;;4.10;;
22026;SDS011;11177;50.966;10.070;2023-05-10T01:20:26;7.25;;;3.72;;
22026;SDS011;11177;50.966;10.070;2023-05-10T01:31:58;4.32;;;3.92;;
22026;SDS011;11177;50.966;10.070;2023-05-10T01:34:54;4.70;;;4.18;;
22026;SDS011;11177;50.966;10.070;2023-05-10T01:37:27;4.72;;;4.25;;
22026;SDS011;11177;50.966;10.070;2023-05-10T01:40:00;5.65;;;4.00;;
22026;SDS011;11177;50.966;10.070;2023-05-10T01:42:31;4.80;;;4.35;;
22026;SDS011;11177;50.966;10.070;2023-05-10T01:48:10;7.22;;;4.18;;
22026;SDS011;11177;50.966;10.070;2023-05-10T01:50:38;4.40;;;4.00;;
22026;SDS011;11177;50.966;10.070;2023-05-10T01:53:07;7.85;;;4.40;;
22026;SDS011;11177;50.966;10.070;2023-05-10T01:55:35;5.03;;;4.10;;
22026;SDS011;11177;50.966;10.070;2023-05-10T01:58:07;8.05;;;4.50;;
22026;SDS011;11177;50.966;10.070;2023-05-10T02:00:35;4.95;;;4.47;;
22026;SDS011;11177;50.966;10.070;2023-05-10T02:03:05;4.45;;;4.05;;
22026;SDS011;11177;50.966;10.070;2023-05-10T02:05:33;6.63;;;4.57;;
22026;SDS011;11177;50.966;10.070;2023-05-10T02:08:01;5.22;;;4.63;;
22026;SDS011;11177;50.966;10.070;2023-05-10T02:10:28;6.55;;;4.70;;
22026;SDS011;11177;50.966;10.070;2023-05-10T02:12:55;6.35;;;4.85;;
22026;SDS011;11177;50.966;10.070;2023-05-10T02:15:25;8.18;;;5.13;;
22026;SDS011;11177;50.966;10.070;2023-05-10T02:17:54;8.43;;;5.90;;
22026;SDS011;11177;50.966;10.070;2023-05-10T02:20:22;6.63;;;5.07;;
22026;SDS011;11177;50.966;10.070;2023-05-10T02:22:50;8.80;;;5.20;;
22026;SDS011;11177;50.966;10.070;2023-05-10T02:25:19;7.55;;;4.70;;
22026;SDS011;11177;50.966;10.070;2023-05-10T02:27:46;7.03;;;4.97;;
22026;SDS011;11177;50.966;10.070;2023-05-10T02:30:14;7.72;;;5.15;;
22026;SDS011;11177;50.966;10.070;2023-05-10T02:32:42;5.53;;;5.00;;
22026;SDS011;11177;50.966;10.070;2023-05-10T02:35:10;6.28;;;5.05;;
22026;SDS011;11177;50.966;10.070;2023-05-10T02:37:37;9.60;;;5.50;;
22026;SDS011;11177;50.966;10.070;2023-05-10T02:40:05;5.68;;;5.00;;
22026;SDS011;11177;50.966;10.070;2023-05-10T02:42:35;8.55;;;5.25;;
22026;SDS011;11177;50.966;10.070;2023-05-10T02:45:04;7.20;;;5.43;;
22026;SDS011;11177;50.966;10.070;2023-05-10T02:47:33;6.40;;;5.18;;
22026;SDS011;11177;50.966;10.070;2023-05-10T02:50:00;9.85;;;5.80;;
22026;SDS011;11177;50.966;10.070;2023-05-10T02:52:29;6.57;;;5.90;;
22026;SDS011;11177;50.966;10.070;2023-05-10T02:55:00;10.18;;;6.40;;
22026;SDS011;11177;50.966;10.070;2023-05-10T02:57:28;8.10;;;5.93;;
22026;SDS011;11177;50.966;10.070;2023-05-10T02:59:58;11.98;;;6.18;;
22026;SDS011;11177;50.966;10.070;2023-05-10T03:02:26;7.18;;;5.60;;
22026;SDS011;11177;50.966;10.070;2023-05-10T03:04:53;8.27;;;6.22;;
22026;SDS011;11177;50.966;10.070;2023-05-10T03:07:20;10.95;;;6.03;;
22026;SDS011;11177;50.966;10.070;2023-05-10T03:09:48;7.45;;;6.03;;
22026;SDS011;11177;50.966;10.070;2023-05-10T03:12:18;7.03;;;5.82;;
22026;SDS011;11177;50.966;10.070;2023-05-10T03:15:13;6.72;;;5.78;;
22026;SDS011;11177;50.966;10.070;2023-05-10T03:18:09;6.93;;;5.63;;
22026;SDS011;11177;50.966;10.070;2023-05-10T03:20:50;9.10;;;6.22;;
22026;SDS011;11177;50.966;10.070;2023-05-10T03:23:27;7.13;;;5.40;;
22026;SDS011;11177;50.966;10.070;2023-05-10T03:25:55;7.68;;;5.60;;
22026;SDS011;11177;50.966;10.070;2023-05-10T03:28:23;6.97;;;5.30;;
22026;SDS011;11177;50.966;10.070;2023-05-10T03:30:52;7.25;;;5.80;;
22026;SDS011;11177;50.966;10.070;2023-05-10T03:33:19;13.38;;;5.88;;
22026;SDS011;11177;50.966;10.070;2023-05-10T03:35:46;6.60;;;5.35;;
22026;SDS011;11177;50.966;10.070;2023-05-10T03:38:13;5.75;;;5.13;;
22026;SDS011;11177;50.966;10.070;2023-05-10T03:40:40;6.90;;;5.50;;
22026;SDS011;11177;50.966;10.070;2023-05-10T03:43:07;6.45;;;5.50;;
22026;SDS011;11177;50.966;10.070;2023-05-10T03:45:34;6.15;;;5.47;;
22026;SDS011;11177;50.966;10.070;2023-05-10T03:48:01;7.75;;;6.00;;
22026;SDS011;11177;50.966;10.070;2023-05-10T03:50:27;6.95;;;5.97;;
22026;SDS011;11177;50.966;10.070;2023-05-10T03:52:54;6.97;;;5.75;;
22026;SDS011;11177;50.966;10.070;2023-05-10T03:55:21;6.13;;;5.50;;
22026;SDS011;11177;50.966;10.070;2023-05-10T03:57:48;7.53;;;5.82;;
22026;SDS011;11177;50.966;10.070;2023-05-10T04:00:20;7.30;;;5.97;;
22026;SDS011;11177;50.966;10.070;2023-05-10T04:02:46;6.32;;;5.65;;
22026;SDS011;11177;50.966;10.070;2023-05-10T04:05:13;7.57;;;6.20;;
22026;SDS011;11177;50.966;10.070;2023-05-10T04:07:40;8.45;;;6.32;;
22026;SDS011;11177;50.966;10.070;2023-05-10T04:10:07;8.20;;;5.90;;
22026;SDS011;11177;50.966;10.070;2023-05-10T04:12:35;7.40;;;5.90;;
22026;SDS011;11177;50.966;10.070;2023-05-10T04:15:01;7.88;;;6.25;;
22026;SDS011;11177;50.966;10.070;2023-05-10T04:17:28;8.90;;;6.47;;
22026;SDS011;11177;50.966;10.070;2023-05-10T04:19:55;7.40;;;6.22;;
22026;SDS011;11177;50.966;10.070;2023-05-10T04:22:22;6.85;;;6.15;;
22026;SDS011;11177;50.966;10.070;2023-05-10T04:24:49;9.52;;;6.68;;
22026;SDS011;11177;50.966;10.070;2023-05-10T04:27:15;7.80;;;6.55;;
22026;SDS011;11177;50.966;10.070;2023-05-10T04:29:42;7.30;;;6.45;;
22026;SDS011;11177;50.966;10.070;2023-05-10T04:32:09;9.05;;;6.93;;
22026;SDS011;11177;50.966;10.070;2023-05-10T04:34:36;8.77;;;7.13;;
22026;SDS011;11177;50.966;10.070;2023-05-10T04:37:03;9.52;;;7.32;;
22026;SDS011;11177;50.966;10.070;2023-05-10T04:39:30;9.77;;;7.53;;
22026;SDS011;11177;50.966;10.070;2023-05-10T04:41:57;11.80;;;7.45;;
22026;SDS011;11177;50.966;10.070;2023-05-10T04:44:24;10.57;;;7.60;;
22026;SDS011;11177;50.966;10.070;2023-05-10T04:46:51;9.73;;;7.70;;
22026;SDS011;11177;50.966;10.070;2023-05-10T04:49:18;12.07;;;7.80;;
22026;SDS011;11177;50.966;10.070;2023-05-10T04:51:45;9.10;;;7.45;;
22026;SDS011;11177;50.966;10.070;2023-05-10T04:54:11;11.20;;;7.90;;
22026;SDS011;11177;50.966;10.070;2023-05-10T04:56:38;9.77;;;7.78;;
22026;SDS011;11177;50.966;10.070;2023-05-10T04:59:05;9.07;;;7.85;;
22026;SDS011;11177;50.966;10.070;2023-05-10T05:01:32;10.07;;;7.90;;
22026;SDS011;11177;50.966;10.070;2023-05-10T05:03:59;10.48;;;8.13;;
22026;SDS011;11177;50.966;10.070;2023-05-10T05:06:26;10.90;;;8.07;;
22026;SDS011;11177;50.966;10.070;2023-05-10T05:08:53;10.35;;;7.53;;
22026;SDS011;11177;50.966;10.070;2023-05-10T05:11:20;13.50;;;7.93;;
22026;SDS011;11177;50.966;10.070;2023-05-10T05:13:47;9.02;;;6.80;;
22026;SDS011;11177;50.966;10.070;2023-05-10T05:16:14;10.02;;;7.43;;
22026;SDS011;11177;50.966;10.070;2023-05-10T05:18:41;10.80;;;7.55;;
22026;SDS011;11177;50.966;10.070;2023-05-10T05:21:14;10.73;;;7.40;;
22026;SDS011;11177;50.966;10.070;2023-05-10T05:23:45;8.32;;;6.85;;
22026;SDS011;11177;50.966;10.070;2023-05-10T05:26:12;10.50;;;6.25;;
22026;SDS011;11177;50.966;10.070;2023-05-10T05:28:39;3.13;;;2.83;;
22026;SDS011;11177;50.966;10.070;2023-05-10T05:31:06;2.20;;;2.00;;
22026;SDS011;11177;50.966;10.070;2023-05-10T05:33:36;1.88;;;1.38;;
22026;SDS011;11177;50.966;10.070;2023-05-10T05:36:04;1.90;;;1.65;;
22026;SDS011;11177;50.966;10.070;2023-05-10T05:38:32;4.65;;;1.70;;
22026;SDS011;11177;50.966;10.070;2023-05-10T05:40:58;2.40;;;0.98;;
22026;SDS011;11177;50.966;10.070;2023-05-10T05:43:25;1.13;;;0.82;;
22026;SDS011;11177;50.966;10.070;2023-05-10T05:45:52;1.10;;;0.90;;
22026;SDS011;11177;50.966;10.070;2023-05-10T05:48:20;1.17;;;1.08;;
22026;SDS011;11177;50.966;10.070;2023-05-10T05:50:47;1.25;;;1.13;;
22026;SDS011;11177;50.966;10.070;2023-05-10T05:53:14;2.45;;;1.02;;
22026;SDS011;11177;50.966;10.070;2023-05-10T05:56:03;2.17;;;1.00;;
22026;SDS011;11177;50.966;10.070;2023-05-10T05:58:28;3.72;;;1.13;;
22026;SDS011;11177;50.966;10.070;2023-05-10T06:00:55;0.80;;;0.80;;
22026;SDS011;11177;50.966;10.070;2023-05-10T06:03:22;1.15;;;0.90;;
22026;SDS011;11177;50.966;10.070;2023-05-10T06:05:49;1.48;;;0.77;;
22026;SDS011;11177;50.966;10.070;2023-05-10T06:08:16;2.15;;;0.90;;
22026;SDS011;11177;50.966;10.070;2023-05-10T06:10:43;0.80;;;0.80;;
22026;SDS011;11177;50.966;10.070;2023-05-10T06:13:11;0.90;;;0.90;;
22026;SDS011;11177;50.966;10.070;2023-05-10T06:15:38;2.45;;;0.90;;
22026;SDS011;11177;50.966;10.070;2023-05-10T06:18:05;0.60;;;0.60;;
22026;SDS011;11177;50.966;10.070;2023-05-10T06:20:32;0.80;;;0.80;;
22026;SDS011;11177;50.966;10.070;2023-05-10T06:23:00;0.70;;;0.70;;
22026;SDS011;11177;50.966;10.070;2023-05-10T06:25:26;0.60;;;0.60;;
22026;SDS011;11177;50.966;10.070;2023-05-10T06:27:53;2.47;;;0.70;;
22026;SDS011;11177;50.966;10.070;2023-05-10T06:30:24;1.10;;;0.60;;
22026;SDS011;11177;50.966;10.070;2023-05-10T06:32:54;0.57;;;0.57;;
22026;SDS011;11177;50.966;10.070;2023-05-10T06:35:21;0.40;;;0.40;;
22026;SDS011;11177;50.966;10.070;2023-05-10T06:37:48;0.60;;;0.60;;
22026;SDS011;11177;50.966;10.070;2023-05-10T06:40:17;1.13;;;0.60;;
22026;SDS011;11177;50.966;10.070;2023-05-10T06:42:44;0.43;;;0.43;;
22026;SDS011;11177;50.966;10.070;2023-05-10T06:45:12;3.53;;;0.70;;
22026;SDS011;11177;50.966;10.070;2023-05-10T06:47:41;0.50;;;0.50;;
22026;SDS011;11177;50.966;10.070;2023-05-10T06:50:08;0.60;;;0.50;;
22026;SDS011;11177;50.966;10.070;2023-05-10T06:52:36;2.05;;;0.50;;
22026;SDS011;11177;50.966;10.070;2023-05-10T06:55:03;2.38;;;0.50;;
22026;SDS011;11177;50.966;10.070;2023-05-10T06:57:31;0.52;;;0.45;;
22026;SDS011;11177;50.966;10.070;2023-05-10T06:59:58;0.60;;;0.50;;
22026;SDS011;11177;50.966;10.070;2023-05-10T07:02:25;0.63;;;0.55;;
22026;SDS011;11177;50.966;10.070;2023-05-10T07:04:52;1.33;;;0.40;;
22026;SDS011;11177;50.966;10.070;2023-05-10T07:07:19;0.40;;;0.40;;
22026;SDS011;11177;50.966;10.070;2023-05-10T07:09:46;0.40;;;0.40;;
22026;SDS011;11177;50.966;10.070;2023-05-10T07:12:13;1.33;;;0.30;;
22026;SDS011;11177;50.966;10.070;2023-05-10T07:14:41;0.40;;;0.40;;
22026;SDS011;11177;50.966;10.070;2023-05-10T07:17:08;2.38;;;0.40;;
22026;SDS011;11177;50.966;10.070;2023-05-10T07:19:35;2.42;;;0.50;;
22026;SDS011;11177;50.966;10.070;2023-05-10T07:22:02;1.02;;;0.40;;
22026;SDS011;11177;50.966;10.070;2023-05-10T07:24:29;1.05;;;0.50;;
22026;SDS011;11177;50.966;10.070;2023-05-10T07:26:58;1.75;;;0.50;;
22026;SDS011;11177;50.966;10.070;2023-05-10T07:29:25;0.90;;;0.50;;
22026;SDS011;11177;50.966;10.070;2023-05-10T07:31:52;0.40;;;0.40;;
22026;SDS011;11177;50.966;10.070;2023-05-10T07:34:24;0.68;;;0.47;;
22026;SDS011;11177;50.966;10.070;2023-05-10T07:36:51;1.00;;;0.40;;
22026;SDS011;11177;50.966;10.070;2023-05-10T07:39:18;0.65;;;0.50;;
22026;SDS011;11177;50.966;10.070;2023-05-10T07:41:53;1.85;;;0.80;;
22026;SDS011;11177;50.966;10.070;2023-05-10T07:44:20;0.60;;;0.60;;
22026;SDS011;11177;50.966;10.070;2023-05-10T07:46:47;0.40;;;0.40;;
22026;SDS011;11177;50.966;10.070;2023-05-10T07:49:15;0.50;;;0.50;;
22026;SDS011;11177;50.966;10.070;2023-05-10T07:51:42;2.80;;;0.60;;
22026;SDS011;11177;50.966;10.070;2023-05-10T07:54:10;1.50;;;0.50;;
22026;SDS011;11177;50.966;10.070;2023-05-10T07:56:36;0.40;;;0.40;;
22026;SDS011;11177;50.966;10.070;2023-05-10T07:59:03;0.40;;;0.40;;
22026;SDS011;11177;50.966;10.070;2023-05-10T08:01:31;5.35;;;0.68;;
22026;SDS011;11177;50.966;10.070;2023-05-10T08:03:59;1.58;;;0.70;;
22026;SDS011;11177;50.966;10.070;2023-05-10T08:06:26;4.10;;;0.73;;
22026;SDS011;11177;50.966;10.070;2023-05-10T08:08:56;1.17;;;0.55;;
22026;SDS011;11177;50.966;10.070;2023-05-10T08:11:23;0.60;;;0.60;;
22026;SDS011;11177;50.966;10.070;2023-05-10T08:13:50;0.57;;;0.55;;
22026;SDS011;11177;50.966;10.070;2023-05-10T08:16:18;1.95;;;1.73;;
22026;SDS011;11177;50.966;10.070;2023-05-10T08:18:45;1.17;;;0.68;;
22026;SDS011;11177;50.966;10.070;2023-05-10T08:21:14;0.52;;;0.52;;
22026;SDS011;11177;50.966;10.070;2023-05-10T08:23:41;0.90;;;0.60;;
22026;SDS011;11177;50.966;10.070;2023-05-10T08:26:10;0.70;;;0.70;;
22026;SDS011;11177;50.966;10.070;2023-05-10T08:28:37;1.58;;;0.55;;
22026;SDS011;11177;50.966;10.070;2023-05-10T08:31:04;0.70;;;0.70;;
22026;SDS011;11177;50.966;10.070;2023-05-10T08:33:32;0.93;;;0.80;;
22026;SDS011;11177;50.966;10.070;2023-05-10T08:35:59;0.93;;;0.60;;
22026;SDS011;11177;50.966;10.070;2023-05-10T08:38:26;2.25;;;0.70;;
22026;SDS011;11177;50.966;10.070;2023-05-10T08:40:53;0.70;;;0.70;;
22026;SDS011;11177;50.966;10.070;2023-05-10T08:43:23;0.93;;;0.93;;
22026;SDS011;11177;50.966;10.070;2023-05-10T08:45:53;5.05;;;1.30;;
22026;SDS011;11177;50.966;10.070;2023-05-10T08:48:25;1.90;;;0.93;;
22026;SDS011;11177;50.966;10.070;2023-05-10T08:50:53;2.25;;;0.70;;
22026;SDS011;11177;50.966;10.070;2023-05-10T08:53:24;0.60;;;0.60;;
22026;SDS011;11177;50.966;10.070;2023-05-10T08:55:53;2.45;;;0.70;;
22026;SDS011;11177;50.966;10.070;2023-05-10T08:58:19;1.17;;;0.70;;
22026;SDS011;11177;50.966;10.070;2023-05-10T09:00:48;0.80;;;0.80;;
22026;SDS011;11177;50.966;10.070;2023-05-10T09:03:15;1.33;;;0.93;;
22026;SDS011;11177;50.966;10.070;2023-05-10T09:05:43;4.18;;;0.77;;
22026;SDS011;11177;50.966;10.070;2023-05-10T09:08:11;1.05;;;0.70;;
22026;SDS011;11177;50.966;10.070;2023-05-10T09:10:39;1.85;;;1.13;;
22026;SDS011;11177;50.966;10.070;2023-05-10T09:13:06;1.38;;;1.20;;
22026;SDS011;11177;50.966;10.070;2023-05-10T09:15:34;1.55;;;0.95;;
22026;SDS011;11177;50.966;10.070;2023-05-10T09:18:01;1.50;;;0.90;;
22026;SDS011;11177;50.966;10.070;2023-05-10T09:20:29;1.38;;;1.10;;
22026;SDS011;11177;50.966;10.070;2023-05-10T09:22:55;1.15;;;1.05;;
22026;SDS011;11177;50.966;10.070;2023-05-10T09:25:22;1.05;;;0.80;;
22026;SDS011;11177;50.966;10.070;2023-05-10T09:27:50;1.27;;;1.17;;
22026;SDS011;11177;50.966;10.070;2023-05-10T09:30:30;3.85;;;1.02;;
22026;SDS011;11177;50.966;10.070;2023-05-10T09:32:58;4.15;;;1.13;;
22026;SDS011;11177;50.966;10.070;2023-05-10T09:35:32;1.20;;;1.10;;
22026;SDS011;11177;50.966;10.070;2023-05-10T09:38:01;0.90;;;0.90;;
22026;SDS011;11177;50.966;10.070;2023-05-10T09:40:30;0.95;;;0.80;;
22026;SDS011;11177;50.966;10.070;2023-05-10T09:45:34;0.75;;;0.75;;
22026;SDS011;11177;50.966;10.070;2023-05-10T09:48:04;1.92;;;0.80;;
22026;SDS011;11177;50.966;10.070;2023-05-10T09:50:31;1.00;;;0.90;;
22026;SDS011;11177;50.966;10.070;2023-05-10T09:53:00;1.00;;;0.63;;
22026;SDS011;11177;50.966;10.070;2023-05-10T09:55:41;0.75;;;0.70;;
22026;SDS011;11177;50.966;10.070;2023-05-10T09:58:11;1.38;;;0.90;;
22026;SDS011;11177;50.966;10.070;2023-05-10T10:00:39;2.00;;;0.75;;
22026;SDS011;11177;50.966;10.070;2023-05-10T10:03:18;0.90;;;0.90;;
22026;SDS011;11177;50.966;10.070;2023-05-10T10:05:47;0.88;;;0.80;;
22026;SDS011;11177;50.966;10.070;2023-05-10T10:08:15;0.73;;;0.73;;
22026;SDS011;11177;50.966;10.070;2023-05-10T10:10:42;1.52;;;0.90;;
22026;SDS011;11177;50.966;10.070;2023-05-10T10:13:12;1.00;;;0.90;;
22026;SDS011;11177;50.966;10.070;2023-05-10T10:15:39;1.42;;;0.80;;
22026;SDS011;11177;50.966;10.070;2023-05-10T10:18:07;1.17;;;1.08;;
22026;SDS011;11177;50.966;10.070;2023-05-10T10:20:39;2.67;;;0.85;;
22026;SDS011;11177;50.966;10.070;2023-05-10T10:23:07;0.95;;;0.73;;
22026;SDS011;11177;50.966;10.070;2023-05-10T10:25:34;3.25;;;0.80;;
22026;SDS011;11177;50.966;10.070;2023-05-10T10:28:06;0.75;;;0.70;;
22026;SDS011;11177;50.966;10.070;2023-05-10T10:30:45;1.20;;;0.90;;
22026;SDS011;11177;50.966;10.070;2023-05-10T10:36:03;2.00;;;0.75;;
22026;SDS011;11177;50.966;10.070;2023-05-10T10:41:39;0.70;;;0.70;;
22026;SDS011;11177;50.966;10.070;2023-05-10T10:44:26;2.33;;;0.70;;
22026;SDS011;11177;50.966;10.070;2023-05-10T10:47:04;0.80;;;0.60;;
22026;SDS011;11177;50.966;10.070;2023-05-10T10:49:33;2.15;;;1.33;;
22026;SDS011;11177;50.966;10.070;2023-05-10T10:52:20;2.33;;;0.70;;
22026;SDS011;11177;50.966;10.070;2023-05-10T10:54:52;0.75;;;0.70;;
22026;SDS011;11177;50.966;10.070;2023-05-10T10:57:19;0.82;;;0.70;;
22026;SDS011;11177;50.966;10.070;2023-05-10T10:59:48;1.38;;;0.70;;
22026;SDS011;11177;50.966;10.070;2023-05-10T11:02:34;0.80;;;0.80;;
22026;SDS011;11177;50.966;10.070;2023-05-10T11:11:03;1.00;;;0.80;;
22026;SDS011;11177;50.966;10.070;2023-05-10T11:13:40;3.80;;;0.73;;
22026;SDS011;11177;50.966;10.070;2023-05-10T11:16:24;3.33;;;0.70;;
22026;SDS011;11177;50.966;10.070;2023-05-10T11:19:02;2.08;;;0.70;;
22026;SDS011;11177;50.966;10.070;2023-05-10T11:21:30;0.85;;;0.80;;
22026;SDS011;11177;50.966;10.070;2023-05-10T11:23:58;1.85;;;0.60;;
22026;SDS011;11177;50.966;10.070;2023-05-10T11:26:34;1.65;;;0.60;;
22026;SDS011;11177;50.966;10.070;2023-05-10T11:29:02;3.00;;;0.80;;
22026;SDS011;11177;50.966;10.070;2023-05-10T11:31:31;1.90;;;0.80;;
22026;SDS011;11177;50.966;10.070;2023-05-10T11:33:58;2.00;;;0.98;;
22026;SDS011;11177;50.966;10.070;2023-05-10T11:36:27;2.08;;;0.80;;
22026;SDS011;11177;50.966;10.070;2023-05-10T11:38:55;2.03;;;0.73;;
22026;SDS011;11177;50.966;10.070;2023-05-10T11:41:23;2.40;;;0.80;;
22026;SDS011;11177;50.966;10.070;2023-05-10T11:43:51;2.15;;;0.70;;
22026;SDS011;11177;50.966;10.070;2023-05-10T11:46:20;2.05;;;0.90;;
22026;SDS011;11177;50.966;10.070;2023-05-10T11:48:52;5.50;;;1.00;;
22026;SDS011;11177;50.966;10.070;2023-05-10T11:51:23;2.10;;;0.65;;
22026;SDS011;11177;50.966;10.070;2023-05-10T11:53:55;1.25;;;0.82;;
22026;SDS011;11177;50.966;10.070;2023-05-10T11:56:26;3.40;;;0.90;;
22026;SDS011;11177;50.966;10.070;2023-05-10T11:58:56;1.85;;;0.80;;
22026;SDS011;11177;50.966;10.070;2023-05-10T12:01:24;4.50;;;1.30;;
22026;SDS011;11177;50.966;10.070;2023-05-10T12:03:53;1.38;;;1.00;;
22026;SDS011;11177;50.966;10.070;2023-05-10T12:06:21;4.13;;;1.00;;
22026;SDS011;11177;50.966;10.070;2023-05-10T12:08:48;3.60;;;1.10;;
22026;SDS011;11177;50.966;10.070;2023-05-10T12:11:19;1.42;;;1.10;;
22026;SDS011;11177;50.966;10.070;2023-05-10T12:13:48;0.93;;;0.93;;
22026;SDS011;11177;50.966;10.070;2023-05-10T12:16:17;1.80;;;0.80;;
22026;SDS011;11177;50.966;10.070;2023-05-10T12:18:58;1.23;;;1.08;;
22026;SDS011;11177;50.966;10.070;2023-05-10T12:21:27;2.08;;;1.00;;
22026;SDS011;11177;50.966;10.070;2023-05-10T12:23:58;1.42;;;0.98;;
22026;SDS011;11177;50.966;10.070;2023-05-10T12:26:27;1.75;;;0.82;;
22026;SDS011;11177;50.966;10.070;2023-05-10T12:28:54;1.40;;;0.90;;
22026;SDS011;11177;50.966;10.070;2023-05-10T12:31:21;1.08;;;0.77;;
22026;SDS011;11177;50.966;10.070;2023-05-10T12:33:48;1.50;;;0.90;;
22026;SDS011;11177;50.966;10.070;2023-05-10T12:36:16;1.73;;;0.93;;
22026;SDS011;11177;50.966;10.070;2023-05-10T12:38:43;3.22;;;0.90;;
22026;SDS011;11177;50.966;10.070;2023-05-10T12:41:15;2.25;;;0.90;;
22026;SDS011;11177;50.966;10.070;2023-05-10T12:43:42;1.70;;;1.00;;
22026;SDS011;11177;50.966;10.070;2023-05-10T12:46:13;2.38;;;0.90;;
22026;SDS011;11177;50.966;10.070;2023-05-10T12:48:43;1.60;;;1.05;;
22026;SDS011;11177;50.966;10.070;2023-05-10T12:51:10;2.22;;;0.90;;
22026;SDS011;11177;50.966;10.070;2023-05-10T12:53:39;1.88;;;1.38;;
22026;SDS011;11177;50.966;10.070;2023-05-10T12:56:10;1.10;;;0.85;;
22026;SDS011;11177;50.966;10.070;2023-05-10T12:58:38;2.28;;;1.38;;
22026;SDS011;11177;50.966;10.070;2023-05-10T13:01:04;5.40;;;2.45;;
22026;SDS011;11177;50.966;10.070;2023-05-10T13:03:32;1.38;;;1.13;;
22026;SDS011;11177;50.966;10.070;2023-05-10T13:05:58;2.45;;;1.05;;
22026;SDS011;11177;50.966;10.070;2023-05-10T13:08:25;3.30;;;1.30;;
22026;SDS011;11177;50.966;10.070;2023-05-10T13:10:52;2.95;;;1.00;;
22026;SDS011;11177;50.966;10.070;2023-05-10T13:13:19;1.05;;;0.80;;
22026;SDS011;11177;50.966;10.070;2023-05-10T13:15:46;1.10;;;0.98;;
22026;SDS011;11177;50.966;10.070;2023-05-10T13:18:13;1.42;;;0.93;;
22026;SDS011;11177;50.966;10.070;2023-05-10T13:20:40;0.90;;;0.90;;
22026;SDS011;11177;50.966;10.070;2023-05-10T13:23:07;1.00;;;0.90;;
22026;SDS011;11177;50.966;10.070;2023-05-10T13:25:34;1.70;;;0.85;;
22026;SDS011;11177;50.966;10.070;2023-05-10T13:28:01;0.77;;;0.77;;
22026;SDS011;11177;50.966;10.070;2023-05-10T13:30:28;2.05;;;0.93;;
22026;SDS011;11177;50.966;10.070;2023-05-10T13:32:55;2.50;;;0.73;;
22026;SDS011;11177;50.966;10.070;2023-05-10T13:35:22;2.45;;;0.80;;
22026;SDS011;11177;50.966;10.070;2023-05-10T13:37:49;1.60;;;1.00;;
22026;SDS011;11177;50.966;10.070;2023-05-10T13:40:16;1.77;;;0.70;;
22026;SDS011;11177;50.966;10.070;2023-05-10T13:42:43;0.85;;;0.75;;
22026;SDS011;11177;50.966;10.070;2023-05-10T13:45:10;3.40;;;0.82;;
22026;SDS011;11177;50.966;10.070;2023-05-10T13:47:38;7.00;;;0.88;;
22026;SDS011;11177;50.966;10.070;2023-05-10T13:50:05;2.97;;;0.80;;
22026;SDS011;11177;50.966;10.070;2023-05-10T13:52:33;2.28;;;0.70;;
22026;SDS011;11177;50.966;10.070;2023-05-10T13:55:00;0.80;;;0.60;;
22026;SDS011;11177;50.966;10.070;2023-05-10T13:57:27;1.17;;;0.70;;
22026;SDS011;11177;50.966;10.070;2023-05-10T13:59:55;2.47;;;0.90;;
22026;SDS011;11177;50.966;10.070;2023-05-10T14:02:23;1.27;;;0.68;;
22026;SDS011;11177;50.966;10.070;2023-05-10T14:04:51;1.40;;;0.85;;
22026;SDS011;11177;50.966;10.070;2023-05-10T14:07:18;6.68;;;1.00;;
22026;SDS011;11177;50.966;10.070;2023-05-10T14:09:44;1.13;;;0.80;;
22026;SDS011;11177;50.966;10.070;2023-05-10T14:12:11;2.08;;;1.00;;
22026;SDS011;11177;50.966;10.070;2023-05-10T14:14:38;1.17;;;0.93;;
22026;SDS011;11177;50.966;10.070;2023-05-10T14:17:05;0.95;;;0.70;;
22026;SDS011;11177;50.966;10.070;2023-05-10T14:19:34;3.70;;;0.80;;
22026;SDS011;11177;50.966;10.070;2023-05-10T14:22:01;1.00;;;0.90;;
22026;SDS011;11177;50.966;10.070;2023-05-10T14:24:29;2.00;;;1.00;;
22026;SDS011;11177;50.966;10.070;2023-05-10T14:26:56;1.67;;;0.95;;
22026;SDS011;11177;50.966;10.070;2023-05-10T14:29:23;1.95;;;0.90;;
22026;SDS011;11177;50.966;10.070;2023-05-10T14:31:50;2.63;;;1.13;;
22026;SDS011;11177;50.966;10.070;2023-05-10T14:34:16;3.03;;;1.27;;
22026;SDS011;11177;50.966;10.070;2023-05-10T14:36:43;1.85;;;1.00;;
22026;SDS011;11177;50.966;10.070;2023-05-10T14:39:10;1.45;;;1.00;;
22026;SDS011;11177;50.966;10.070;2023-05-10T14:41:39;2.38;;;1.77;;
22026;SDS011;11177;50.966;10.070;2023-05-10T14:44:07;3.83;;;2.55;;
22026;SDS011;11177;50.966;10.070;2023-05-10T14:46:34;6.35;;;3.65;;
22026;SDS011;11177;50.966;10.070;2023-05-10T14:49:02;6.68;;;4.18;;
22026;SDS011;11177;50.966;10.070;2023-05-10T14:51:28;9.07;;;4.45;;
22026;SDS011;11177;50.966;10.070;2023-05-10T14:53:55;3.42;;;2.35;;
22026;SDS011;11177;50.966;10.070;2023-05-10T14:56:22;3.45;;;1.67;;
22026;SDS011;11177;50.966;10.070;2023-05-10T14:58:49;1.73;;;1.50;;
22026;SDS011;11177;50.966;10.070;2023-05-10T15:01:17;2.40;;;1.30;;
22026;SDS011;11177;50.966;10.070;2023-05-10T15:03:44;2.83;;;1.73;;
22026;SDS011;11177;50.966;10.070;2023-05-10T15:06:11;2.75;;;1.70;;
22026;SDS011;11177;50.966;10.070;2023-05-10T15:08:40;2.15;;;1.80;;